createdAt,value
2023-04-19T00:03:28.320Z,102259.03
2023-04-19T00:08:31.990Z,102242.34
2023-04-19T00:13:33.924Z,102236.41
2023-04-19T00:18:35.843Z,102243.28
2023-04-19T00:23:39.292Z,102240.81
2023-04-19T00:28:41.766Z,102229.44
2023-04-19T00:33:43.920Z,102235.66
2023-04-19T00:38:47.390Z,102230.31
2023-04-19T00:43:49.490Z,102227.72
2023-04-19T00:48:51.941Z,102222.66
2023-04-19T00:53:56.816Z,102214.59
2023-04-19T00:58:59.920Z,102219.28
2023-04-19T01:04:02.557Z,102216.72
2023-04-19T01:09:05.758Z,102218.47
2023-04-19T01:14:09.124Z,102221.25
2023-04-19T01:19:10.842Z,102219.34
2023-04-19T01:24:14.396Z,102223.88
2023-04-19T01:29:16.922Z,102222.00
2023-04-19T01:34:19.045Z,102220.06
2023-04-19T01:39:22.944Z,102215.63
2023-04-19T01:44:25.005Z,102214.75
2023-04-19T01:49:27.189Z,102211.06
2023-04-19T01:54:30.808Z,102216.84
2023-04-19T01:59:32.975Z,102200.75
2023-04-19T02:04:35.383Z,102206.34
2023-04-19T02:09:39.179Z,102204.28
2023-04-19T02:14:41.355Z,102190.69
2023-04-19T02:19:43.594Z,102198.22
2023-04-19T02:24:46.972Z,102199.56
2023-04-19T02:29:49.287Z,102194.91
2023-04-19T02:34:51.445Z,102188.22
2023-04-19T02:39:54.978Z,102187.97
2023-04-19T02:44:57.097Z,102189.72
2023-04-19T02:50:00.204Z,102188.53
2023-04-19T02:55:03.990Z,102187.97
2023-04-19T03:00:07.214Z,102185.78
2023-04-19T03:05:09.836Z,102184.31
2023-04-19T03:10:13.283Z,102182.66
2023-04-19T03:15:15.472Z,102176.94
2023-04-19T03:20:17.783Z,102176.91
2023-04-19T03:25:21.072Z,102169.34
2023-04-19T03:30:23.392Z,102166.13
2023-04-19T03:35:25.441Z,102155.13
2023-04-19T03:40:30.576Z,102151.69
2023-04-19T03:45:32.644Z,102147.66
2023-04-19T03:50:34.807Z,102147.31
2023-04-19T03:55:38.492Z,102142.59
2023-04-19T04:00:40.199Z,102139.47
2023-04-19T04:05:42.594Z,102138.06
2023-04-19T04:10:46.253Z,102138.91
2023-04-19T04:15:48.596Z,102147.69
2023-04-19T04:20:50.682Z,102141.47
2023-04-19T04:25:58.198Z,102142.19
2023-04-19T04:31:00.603Z,102148.47
2023-04-19T04:36:02.584Z,102148.41
2023-04-19T04:41:05.849Z,102141.28
2023-04-19T04:46:07.608Z,102136.00
2023-04-19T04:51:09.333Z,102130.03
2023-04-19T04:56:12.786Z,102138.00
2023-04-19T05:01:14.987Z,102134.91
2023-04-19T05:06:16.952Z,102126.41
2023-04-19T05:11:20.734Z,102127.03
2023-04-19T05:16:22.735Z,102127.41
2023-04-19T05:21:24.842Z,102123.34
2023-04-19T05:26:28.307Z,102123.47
2023-04-19T05:31:30.682Z,102117.31
2023-04-19T05:36:32.802Z,102109.75
2023-04-19T05:41:36.440Z,102100.59
2023-04-19T05:46:38.595Z,102095.91
2023-04-19T05:51:40.609Z,102093.47
2023-04-19T05:56:44.233Z,102099.88
2023-04-19T06:01:46.360Z,102085.28
2023-04-19T06:06:48.432Z,102085.38
2023-04-19T06:11:52.143Z,102079.59
2023-04-19T06:16:54.300Z,102082.72
2023-04-19T06:21:56.387Z,102084.50
2023-04-19T06:26:59.962Z,102079.25
2023-04-19T06:32:02.789Z,102073.69
2023-04-19T06:37:05.178Z,102068.03
2023-04-19T06:42:08.528Z,102065.56
2023-04-19T06:47:10.678Z,102061.34
2023-04-19T06:52:12.617Z,102061.91
2023-04-19T06:57:16.217Z,102062.88
2023-04-19T07:02:18.230Z,102052.56
2023-04-19T07:07:20.418Z,102047.66
2023-04-19T07:12:24.179Z,102040.50
2023-04-19T07:17:26.446Z,102034.44
2023-04-19T07:22:28.472Z,102032.19
2023-04-19T07:27:31.861Z,102022.31
2023-04-19T07:32:34.519Z,102018.97
2023-04-19T07:37:36.607Z,102009.09
2023-04-19T07:42:40.036Z,102008.09
2023-04-19T07:47:41.828Z,102002.84
2023-04-19T07:52:44.225Z,101997.84
2023-04-19T07:57:47.571Z,101996.69
2023-04-19T08:02:49.913Z,101992.41
2023-04-19T08:07:52.938Z,101978.50
2023-04-19T08:13:04.404Z,101973.78
2023-04-19T08:18:08.080Z,101979.34
2023-04-19T08:23:18.526Z,101966.38
2023-04-19T08:28:25.089Z,101967.44
2023-04-19T08:33:28.908Z,101955.25
2023-04-19T08:38:30.970Z,101949.31
2023-04-19T08:43:38.387Z,101947.66
2023-04-19T08:48:41.801Z,101951.84
2023-04-19T08:53:44.453Z,101959.16
2023-04-19T09:04:03.329Z,101940.88
2023-04-19T09:09:33.302Z,101934.56
2023-04-19T09:14:59.743Z,101925.88
2023-04-19T09:20:04.634Z,101906.28
2023-04-19T09:30:21.020Z,101892.16
2023-04-19T09:35:40.817Z,101884.59
2023-04-19T09:40:43.863Z,101870.78
2023-04-19T09:45:46.969Z,101875.50
2023-04-19T09:50:58.856Z,101868.13
2023-04-19T09:56:04.403Z,101868.72
2023-04-19T10:01:15.934Z,101854.00
2023-04-19T10:11:27.581Z,101852.59
2023-04-19T10:16:32.642Z,101839.69
2023-04-19T10:21:36.509Z,101835.25
2023-04-19T10:27:07.741Z,101823.72
2023-04-19T10:32:15.236Z,101817.16
2023-04-19T10:37:17.469Z,101815.72
2023-04-19T10:42:19.690Z,101812.97
2023-04-19T10:47:44.439Z,101804.69
2023-04-19T10:52:46.874Z,101796.31
2023-04-19T10:58:05.300Z,101796.41
2023-04-19T11:03:52.804Z,101804.81
2023-04-19T11:08:57.136Z,101790.16
2023-04-19T11:14:01.377Z,101791.50
2023-04-19T11:19:03.653Z,101782.41
2023-04-19T11:24:10.765Z,101782.06
2023-04-19T11:29:12.969Z,101775.09
2023-04-19T11:34:15.339Z,101766.50
2023-04-19T11:39:19.581Z,101766.13
2023-04-19T11:44:21.685Z,101763.03
2023-04-19T11:49:26.717Z,101756.13
2023-04-19T11:54:30.125Z,101760.47
2023-04-19T11:59:34.165Z,101759.66
2023-04-19T12:04:37.123Z,101744.81
2023-04-19T12:09:40.418Z,101745.63
2023-04-19T12:14:52.307Z,101753.72
2023-04-19T12:19:54.046Z,101735.16
2023-04-19T12:24:57.676Z,101729.78
2023-04-19T12:29:59.894Z,101740.22
2023-04-19T12:35:01.576Z,101725.78
2023-04-19T12:40:06.755Z,101715.81
2023-04-19T12:45:09.958Z,101735.88
2023-04-19T12:50:13.261Z,101713.53
2023-04-19T12:55:16.298Z,101709.78
2023-04-19T13:00:18.783Z,101708.03
2023-04-19T13:05:20.548Z,101693.84
2023-04-19T13:10:23.978Z,101687.53
2023-04-19T13:15:26.198Z,101672.41
2023-04-19T13:20:27.879Z,101670.38
2023-04-19T13:25:31.197Z,101668.84
2023-04-19T13:30:33.458Z,101661.72
2023-04-19T13:35:35.200Z,101637.13
2023-04-19T13:40:38.851Z,101625.97
2023-04-19T13:45:40.938Z,101626.13
2023-04-19T13:50:43.119Z,101622.69
2023-04-19T13:55:46.613Z,101613.03
2023-04-19T14:00:48.402Z,101613.03
2023-04-19T14:05:50.639Z,101608.69
2023-04-19T14:10:54.300Z,101603.69
2023-04-19T14:15:56.440Z,101601.94
2023-04-19T14:20:58.520Z,101606.47
2023-04-19T14:26:01.981Z,101607.31
2023-04-19T14:31:04.457Z,101596.72
2023-04-19T14:36:07.762Z,101614.69
2023-04-19T14:41:11.684Z,101610.31
2023-04-19T14:46:13.805Z,101604.09
2023-04-19T14:51:15.992Z,101588.13
2023-04-19T14:56:19.435Z,101581.03
2023-04-19T15:01:21.568Z,101578.38
2023-04-19T15:06:23.365Z,101565.97
2023-04-19T15:11:26.901Z,101568.63
2023-04-19T15:16:29.114Z,101558.91
2023-04-19T15:21:31.043Z,101570.44
2023-04-19T15:26:35.066Z,101558.06
2023-04-19T15:31:37.274Z,101560.72
2023-04-19T15:36:39.431Z,101586.31
2023-04-19T15:41:43.030Z,101592.84
2023-04-19T15:46:45.550Z,101614.78
2023-04-19T15:51:47.308Z,101628.16
2023-04-19T15:56:51.010Z,101647.63
2023-04-19T16:01:52.749Z,101647.72
2023-04-19T16:06:55.965Z,101655.38
2023-04-19T16:11:59.552Z,101655.59
2023-04-19T16:17:01.681Z,101654.47
2023-04-19T16:22:03.897Z,101653.72
2023-04-19T16:27:07.414Z,101639.94
2023-04-19T16:32:09.583Z,101632.25
2023-04-19T16:37:11.334Z,101631.34
2023-04-19T16:42:14.629Z,101630.41
2023-04-19T16:47:16.908Z,101617.25
2023-04-19T16:52:18.781Z,101620.97
2023-04-19T16:57:23.573Z,101616.34
2023-04-19T17:02:26.051Z,101612.69
2023-04-19T17:07:28.393Z,101601.22
2023-04-19T17:12:31.788Z,101596.00
2023-04-19T17:17:34.421Z,101586.53
2023-04-19T17:22:36.714Z,101583.91
2023-04-19T17:27:40.012Z,101584.75
2023-04-19T17:32:42.209Z,101582.78
2023-04-19T17:37:44.371Z,101580.16
2023-04-19T17:42:47.692Z,101585.66
2023-04-19T17:47:49.492Z,101570.81
2023-04-19T17:52:51.644Z,101586.50
2023-04-19T17:57:54.743Z,101585.53
2023-04-19T18:02:56.568Z,101588.09
2023-04-19T18:07:58.528Z,101597.69
2023-04-19T18:13:02.455Z,101593.94
2023-04-19T18:18:04.414Z,101601.47
2023-04-19T18:23:06.645Z,101599.06
2023-04-19T18:28:09.984Z,101605.25
2023-04-19T18:33:11.770Z,101598.44
2023-04-19T18:38:13.923Z,101599.19
2023-04-19T18:43:17.648Z,101594.63
2023-04-19T18:48:20.652Z,101585.06
2023-04-19T18:53:23.989Z,101585.28
2023-04-19T18:58:28.435Z,101580.97
2023-04-19T19:03:57.849Z,101582.13
2023-04-19T19:08:53.370Z,101585.47
2023-04-19T19:13:57.404Z,101591.00
2023-04-19T19:19:01.942Z,101579.81
2023-04-19T19:24:05.335Z,101584.31
2023-04-19T19:29:09.461Z,101588.75
2023-04-19T19:34:25.435Z,101584.22
2023-04-19T19:39:31.695Z,101592.22
2023-04-19T19:44:35.511Z,101584.50
2023-04-19T19:54:42.796Z,101589.78
2023-04-19T19:59:51.553Z,101586.19
2023-04-19T20:04:55.060Z,101596.16
2023-04-19T20:09:57.324Z,101592.59
2023-04-19T20:15:00.439Z,101590.13
2023-04-19T20:20:02.230Z,101592.75
2023-04-19T20:25:04.662Z,101592.06
2023-04-19T20:30:09.490Z,101605.34
2023-04-19T20:35:11.473Z,101602.75
2023-04-19T20:40:14.902Z,101602.75
2023-04-19T20:45:18.531Z,101594.03
2023-04-19T20:50:20.466Z,101592.31
2023-04-19T20:55:22.390Z,101586.31
2023-04-19T21:00:25.842Z,101581.03
2023-04-19T21:05:27.571Z,101590.75
2023-04-19T21:10:29.833Z,101586.25
2023-04-19T21:15:33.389Z,101591.59
2023-04-19T21:20:35.316Z,101595.88
2023-04-19T21:25:37.036Z,101601.34
2023-04-19T21:30:40.332Z,101596.09
2023-04-19T21:35:42.030Z,101587.94
2023-04-19T21:40:44.131Z,101596.09
2023-04-19T21:45:47.445Z,101595.28
2023-04-19T21:50:49.519Z,101593.38
2023-04-19T21:55:52.722Z,101589.88
2023-04-19T22:00:56.267Z,101603.03
2023-04-19T22:05:58.143Z,101604.78
2023-04-19T22:10:59.925Z,101607.41
2023-04-19T22:16:03.128Z,101602.25
2023-04-19T22:21:05.505Z,101609.28
2023-04-19T22:26:07.262Z,101608.31
2023-04-19T22:31:10.427Z,101609.06
2023-04-19T22:36:12.562Z,101604.69
2023-04-19T22:41:14.653Z,101603.88
2023-04-19T22:46:18.395Z,101600.44
2023-04-19T22:51:20.232Z,101590.53
2023-04-19T22:56:22.030Z,101585.22
2023-04-19T23:01:25.137Z,101585.41
2023-04-19T23:06:26.814Z,101588.09
2023-04-19T23:11:28.512Z,101580.88
2023-04-19T23:16:31.537Z,101591.41
2023-04-19T23:21:33.660Z,101585.31
2023-04-19T23:26:35.384Z,101592.44
2023-04-19T23:31:38.544Z,101580.13
2023-04-19T23:36:40.325Z,101572.97
2023-04-19T23:41:42.082Z,101573.13
2023-04-19T23:46:45.482Z,101566.84
2023-04-19T23:51:48.027Z,101571.13
2023-04-19T23:56:49.737Z,101560.72
